Terminal Aerodrome Forecast
Issued by NWS

Home | Current Version | Previous Version | Graphics & Text | Print | Product List | Glossary On
Versions: 1 2 3 4 5 6 7 8 9 10 11 12 13 14 15 16 17 18 19 20 21
000
FTUS42 KMHX 302320
TAFPGV
TAF
KPGV 302320Z 3100/3124 15005KT P6SM SKC
     FM310400 18005KT P6SM BKN200
     FM310900 00000KT 4SM BR BKN080
     FM311200 29004KT P6SM BKN080
     FM311400 31005KT P6SM SCT090
     FM311900 01005KT P6SM SCT050
      AMD LTD TO CLD VIS AND WIND=

USA.gov is the U.S. government's official web portal to all federal, state and local government web resources and services.